Time;durP1;ratioP1;P1;durP2;ratioP2;P2;SDS_P1;SDS_P2;PMS_P1;PMS_P2;Temp;Humidity;BMP_temperature;BMP_pressure;BME280_temperature;BME280_humidity;BME280_pressure;Samples;Min_cycle;Max_cycle;Signal;HPM_P1;HPM_P2
2023/03/17 00:01:19;;;;;;;7.43;4.70;;;9.50;99.90;;;;;;4946753;28;20142;-90
2023/03/17 00:03:48;;;;;;;9.20;5.80;;;9.40;99.90;;;;;;4949293;28;20050;-91
2023/03/17 00:06:17;;;;;;;8.38;5.85;;;9.50;99.90;;;;;;4965561;28;20027;-90
2023/03/17 00:08:45;;;;;;;8.77;5.30;;;9.40;99.90;;;;;;4964734;28;20397;-91
2023/03/17 00:11:12;;;;;;;11.60;5.68;;;9.50;99.90;;;;;;4947255;28;20463;-91
2023/03/17 00:13:38;;;;;;;9.38;5.45;;;9.40;99.90;;;;;;4966940;28;20023;-90
2023/03/17 00:16:09;;;;;;;7.40;6.10;;;9.40;99.90;;;;;;4947570;28;20494;-91
2023/03/17 00:18:35;;;;;;;8.57;6.18;;;9.40;99.90;;;;;;4949934;28;20111;-90
2023/03/17 00:21:01;;;;;;;9.68;6.18;;;9.40;99.90;;;;;;4956199;29;20047;-90
2023/03/17 00:23:27;;;;;;;7.97;5.55;;;9.40;99.90;;;;;;4954608;28;20031;-91
2023/03/17 00:25:53;;;;;;;8.45;5.78;;;9.40;99.90;;;;;;4947748;28;20050;-91
2023/03/17 00:28:26;;;;;;;10.38;5.30;;;9.40;99.90;;;;;;4939410;29;20037;-90
2023/03/17 00:30:57;;;;;;;7.47;5.75;;;9.40;99.90;;;;;;4939189;29;20063;-91
2023/03/17 00:33:25;;;;;;;10.43;5.35;;;9.40;99.90;;;;;;4938728;29;20027;-90
2023/03/17 00:35:52;;;;;;;6.88;5.45;;;9.40;99.90;;;;;;4938626;29;20050;-90
2023/03/17 00:38:20;;;;;;;16.15;5.68;;;9.40;99.90;;;;;;4938602;29;20122;-90
2023/03/17 00:40:46;;;;;;;12.77;6.85;;;9.40;99.90;;;;;;4937884;29;20035;-90
2023/03/17 00:43:13;;;;;;;11.32;6.47;;;9.50;99.90;;;;;;4937932;29;20044;-91
2023/03/17 00:45:42;;;;;;;9.90;5.80;;;9.50;99.90;;;;;;4938077;29;20034;-90
2023/03/17 00:48:17;;;;;;;11.43;5.87;;;9.50;99.90;;;;;;4938405;29;20035;-90
2023/03/17 00:50:44;;;;;;;12.13;6.20;;;9.50;99.90;;;;;;4937999;29;20039;-91
2023/03/17 00:53:15;;;;;;;9.80;6.55;;;9.40;99.90;;;;;;4938265;29;20082;-91
2023/03/17 00:55:42;;;;;;;12.50;6.28;;;9.40;99.90;;;;;;4938438;29;20039;-90
2023/03/17 00:58:25;;;;;;;11.40;6.20;;;9.30;99.90;;;;;;4938634;29;20038;-91
2023/03/17 01:00:52;;;;;;;11.48;6.43;;;9.30;99.90;;;;;;4938440;29;20485;-91
2023/03/17 01:03:19;;;;;;;9.98;5.90;;;9.30;99.90;;;;;;4937898;29;20031;-91
2023/03/17 01:05:45;;;;;;;11.05;6.32;;;9.30;99.90;;;;;;4937592;29;20038;-91
2023/03/17 01:08:11;;;;;;;9.45;5.72;;;9.30;99.90;;;;;;4938125;29;20047;-91
2023/03/17 01:10:38;;;;;;;7.90;5.75;;;9.30;99.90;;;;;;4938359;29;20519;-91
2023/03/17 01:13:05;;;;;;;7.80;5.65;;;9.30;99.90;;;;;;4955103;29;20032;-91
2023/03/17 01:15:32;;;;;;;9.93;5.82;;;9.20;99.90;;;;;;4938844;29;20082;-90
2023/03/17 01:18:00;;;;;;;10.07;5.97;;;9.20;99.90;;;;;;4938854;29;20555;-91
2023/03/17 01:20:31;;;;;;;11.50;5.78;;;9.20;99.90;;;;;;4939154;29;20090;-91
2023/03/17 01:22:58;;;;;;;10.93;5.72;;;9.20;99.90;;;;;;4940157;29;20055;-90
2023/03/17 01:25:24;;;;;;;10.32;4.85;;;9.20;99.90;;;;;;4941166;29;20031;-89
2023/03/17 01:27:50;;;;;;;10.25;5.68;;;9.10;99.90;;;;;;4950683;28;20042;-89
2023/03/17 01:30:19;;;;;;;11.73;6.03;;;9.10;99.90;;;;;;4960436;28;20042;-91
2023/03/17 01:32:45;;;;;;;10.30;5.70;;;9.10;99.90;;;;;;4958365;29;20054;-90
2023/03/17 01:35:12;;;;;;;11.57;6.90;;;9.10;99.90;;;;;;4943757;29;20090;-91
2023/03/17 01:37:38;;;;;;;12.02;6.47;;;9.10;99.90;;;;;;4938405;29;20024;-91
2023/03/17 01:40:06;;;;;;;11.43;6.13;;;9.10;99.90;;;;;;4938236;29;20051;-92
2023/03/17 01:42:32;;;;;;;11.07;6.68;;;9.10;99.90;;;;;;4954805;29;20023;-91
2023/03/17 01:45:06;;;;;;;11.27;6.88;;;9.10;99.90;;;;;;4937994;29;20042;-92
2023/03/17 01:47:33;;;;;;;16.27;7.63;;;9.10;99.90;;;;;;4938147;29;20118;-92
2023/03/17 01:50:06;;;;;;;9.73;7.63;;;9.10;99.90;;;;;;4938678;29;20038;-91
2023/03/17 01:52:34;;;;;;;9.70;5.63;;;9.10;99.90;;;;;;4937264;29;20035;-90
2023/03/17 01:55:08;;;;;;;10.65;6.20;;;9.10;99.90;;;;;;4937771;29;20031;-92
2023/03/17 01:57:39;;;;;;;11.88;5.82;;;9.10;99.90;;;;;;4938342;29;20027;-90
2023/03/17 02:00:08;;;;;;;12.85;6.30;;;9.10;99.90;;;;;;4938510;29;20028;-90
2023/03/17 02:02:37;;;;;;;11.32;6.55;;;9.10;99.90;;;;;;4937862;29;20477;-89
2023/03/17 02:05:09;;;;;;;14.20;6.88;;;9.10;99.90;;;;;;4938148;29;20086;-89
2023/03/17 02:07:35;;;;;;;11.57;5.97;;;9.10;99.90;;;;;;4934450;29;20120;-90
2023/03/17 02:10:03;;;;;;;9.13;5.82;;;9.00;99.90;;;;;;4934323;29;20036;-91
2023/03/17 02:12:29;;;;;;;14.60;6.30;;;9.00;99.90;;;;;;4933990;29;20020;-92
2023/03/17 02:14:56;;;;;;;9.40;6.20;;;9.00;99.90;;;;;;4933841;29;20032;-91
2023/03/17 02:17:24;;;;;;;10.40;6.03;;;8.90;99.90;;;;;;4935530;29;20020;-91
2023/03/17 02:19:50;;;;;;;9.20;6.28;;;8.90;99.90;;;;;;4938058;29;20035;-91
2023/03/17 02:22:17;;;;;;;12.10;6.38;;;8.90;99.90;;;;;;4938275;29;20034;-90
2023/03/17 02:24:50;;;;;;;12.95;5.68;;;8.90;99.90;;;;;;4938449;29;20039;-91
2023/03/17 02:27:29;;;;;;;11.55;5.75;;;8.90;99.90;;;;;;4938006;29;20020;-91
2023/03/17 02:29:55;;;;;;;13.05;5.57;;;8.90;99.90;;;;;;4937566;29;20043;-91
2023/03/17 02:32:21;;;;;;;11.10;5.63;;;8.90;99.90;;;;;;4937221;29;20055;-91
2023/03/17 02:34:47;;;;;;;8.48;5.32;;;8.90;99.90;;;;;;4937674;29;20024;-92
2023/03/17 02:37:14;;;;;;;12.68;6.05;;;9.00;99.90;;;;;;4937725;29;20494;-91
2023/03/17 02:39:41;;;;;;;11.40;5.38;;;8.90;99.90;;;;;;4937993;29;20035;-90
2023/03/17 02:42:08;;;;;;;12.13;5.70;;;9.00;99.90;;;;;;4938014;29;20446;-90
2023/03/17 02:44:34;;;;;;;9.00;5.80;;;8.90;99.90;;;;;;4936757;29;20488;-90
2023/03/17 02:47:00;;;;;;;13.95;6.40;;;8.90;99.90;;;;;;4938766;29;20028;-91
2023/03/17 02:49:26;;;;;;;10.52;6.78;;;8.90;99.90;;;;;;4937919;29;20028;-91
2023/03/17 02:51:52;;;;;;;12.75;5.85;;;8.90;99.90;;;;;;4938931;29;20032;-90
2023/03/17 02:54:18;;;;;;;11.45;5.97;;;8.90;99.90;;;;;;4938619;29;20381;-91
2023/03/17 02:56:44;;;;;;;14.00;6.80;;;9.00;99.90;;;;;;4939833;29;20019;-92
2023/03/17 02:59:09;;;;;;;11.25;5.88;;;9.00;99.90;;;;;;4944828;29;20052;-91
2023/03/17 03:01:35;;;;;;;14.07;6.72;;;9.00;99.90;;;;;;4944765;29;20027;-91
2023/03/17 03:04:02;;;;;;;9.07;5.78;;;9.00;99.90;;;;;;4937854;29;20040;-91
2023/03/17 03:06:28;;;;;;;12.95;5.95;;;9.00;99.90;;;;;;4938861;28;20063;-91
2023/03/17 03:08:54;;;;;;;12.43;6.38;;;9.00;99.90;;;;;;4957569;29;20039;-92
2023/03/17 03:11:19;;;;;;;10.15;6.32;;;9.00;99.90;;;;;;4939947;29;20081;-91
2023/03/17 03:13:45;;;;;;;14.00;6.70;;;9.00;99.90;;;;;;4939582;29;20023;-92
2023/03/17 03:16:11;;;;;;;14.90;6.53;;;9.00;99.90;;;;;;4940168;29;20027;-91
2023/03/17 03:18:37;;;;;;;14.18;7.63;;;9.00;99.90;;;;;;4940357;29;20058;-91
2023/03/17 03:21:04;;;;;;;10.27;6.45;;;9.00;99.90;;;;;;4939671;29;20035;-91
2023/03/17 03:23:29;;;;;;;12.27;7.00;;;8.90;99.90;;;;;;4939986;29;20062;-91
2023/03/17 03:25:56;;;;;;;13.93;6.22;;;9.00;99.90;;;;;;4939942;29;20086;-92
2023/03/17 03:28:22;;;;;;;9.50;5.78;;;9.00;99.90;;;;;;4940263;29;20027;-91
2023/03/17 03:30:47;;;;;;;14.10;5.22;;;9.00;99.90;;;;;;4939835;29;20511;-91
2023/03/17 03:33:14;;;;;;;16.67;7.95;;;9.00;99.90;;;;;;4939400;29;20123;-91
2023/03/17 03:35:39;;;;;;;11.52;6.32;;;9.00;99.90;;;;;;4939492;29;20110;-90
2023/03/17 03:38:06;;;;;;;11.50;6.55;;;9.00;99.90;;;;;;4940053;29;20058;-91
2023/03/17 03:40:32;;;;;;;11.02;5.47;;;9.00;99.90;;;;;;4940260;29;20034;-92
2023/03/17 03:42:58;;;;;;;12.50;5.70;;;8.90;99.90;;;;;;4939074;29;20054;-91
2023/03/17 03:45:24;;;;;;;11.98;5.43;;;8.90;99.90;;;;;;4939855;29;20027;-91
2023/03/17 03:47:50;;;;;;;14.10;5.18;;;8.90;99.90;;;;;;4939469;29;20027;-92
2023/03/17 03:50:16;;;;;;;8.63;4.97;;;8.90;99.90;;;;;;4939300;29;20059;-92
2023/03/17 03:52:42;;;;;;;17.38;5.47;;;8.90;99.90;;;;;;4938956;29;20034;-92
2023/03/17 03:55:08;;;;;;;16.13;5.45;;;8.80;99.90;;;;;;4939096;29;20027;-92
2023/03/17 03:57:34;;;;;;;10.07;4.97;;;8.80;99.90;;;;;;4939017;29;20066;-92
2023/03/17 04:00:01;;;;;;;15.38;5.60;;;8.80;99.90;;;;;;4939035;29;20038;-91
2023/03/17 04:02:26;;;;;;;10.18;5.47;;;8.80;99.90;;;;;;4939082;29;20033;-91
2023/03/17 04:04:53;;;;;;;13.35;5.57;;;8.80;99.90;;;;;;4938969;29;20126;-91
2023/03/17 04:07:20;;;;;;;13.43;6.30;;;8.70;99.90;;;;;;4938398;29;20400;-91
2023/03/17 04:09:48;;;;;;;12.60;5.70;;;8.70;99.90;;;;;;4938587;29;20440;-92
2023/03/17 04:12:14;;;;;;;13.30;6.57;;;8.70;99.90;;;;;;4938805;29;20019;-93
2023/03/17 04:14:41;;;;;;;13.25;6.82;;;8.70;99.90;;;;;;4938681;29;20065;-92
2023/03/17 04:17:07;;;;;;;9.23;5.43;;;8.60;99.90;;;;;;4938839;29;20054;-92
2023/03/17 04:19:33;;;;;;;15.88;6.47;;;8.70;99.90;;;;;;4938829;29;20042;-92
2023/03/17 04:22:00;;;;;;;18.50;6.90;;;8.60;99.90;;;;;;4940039;28;20109;-90
2023/03/17 04:24:26;;;;;;;17.08;7.82;;;8.60;99.90;;;;;;4976886;28;20030;-92
2023/03/17 04:26:52;;;;;;;15.73;7.30;;;8.60;99.90;;;;;;4976977;28;20034;-92
2023/03/17 04:29:19;;;;;;;14.40;7.55;;;8.60;99.90;;;;;;4977016;28;20133;-92
2023/03/17 04:31:45;;;;;;;18.55;8.52;;;8.70;99.90;;;;;;4977095;28;20488;-92
2023/03/17 04:34:15;;;;;;;14.40;7.18;;;8.70;99.90;;;;;;4976743;28;20069;-92
2023/03/17 04:36:41;;;;;;;17.00;7.88;;;8.70;99.90;;;;;;4977094;28;20033;-92
2023/03/17 04:39:07;;;;;;;17.80;7.55;;;8.70;99.90;;;;;;4994285;28;20045;-91
2023/03/17 04:41:33;;;;;;;19.73;7.28;;;8.70;99.90;;;;;;4976139;28;20038;-91
2023/03/17 04:43:59;;;;;;;16.58;7.55;;;8.70;99.90;;;;;;4977103;28;20591;-92
2023/03/17 04:46:24;;;;;;;16.40;7.78;;;8.70;99.90;;;;;;4977371;28;20063;-92
2023/03/17 04:48:50;;;;;;;16.75;7.18;;;8.70;99.90;;;;;;4977267;28;20057;-93
2023/03/17 04:51:16;;;;;;;17.42;7.55;;;8.70;99.90;;;;;;4993964;28;20199;-91
2023/03/17 04:53:43;;;;;;;14.13;6.90;;;8.80;99.90;;;;;;4976428;28;20158;-91
2023/03/17 04:56:09;;;;;;;17.50;7.60;;;8.80;99.90;;;;;;4976391;28;20030;-93
2023/03/17 04:58:35;;;;;;;15.90;7.75;;;8.80;99.90;;;;;;4977456;28;20030;-93
2023/03/17 05:01:02;;;;;;;22.00;8.10;;;8.70;99.90;;;;;;4977095;28;20073;-92
2023/03/17 05:03:30;;;;;;;13.45;7.63;;;8.70;99.90;;;;;;4977005;28;20026;-92
2023/03/17 05:05:56;;;;;;;18.75;7.28;;;8.70;99.90;;;;;;4956592;28;20034;-92
2023/03/17 05:08:23;;;;;;;17.95;7.57;;;8.70;99.90;;;;;;4956232;28;20038;-92
2023/03/17 05:10:49;;;;;;;12.63;7.43;;;8.70;99.90;;;;;;4956431;28;20035;-92
2023/03/17 05:13:16;;;;;;;18.52;7.88;;;8.70;99.90;;;;;;4955974;28;20566;-91
2023/03/17 05:15:49;;;;;;;15.38;7.63;;;8.70;99.90;;;;;;4956067;28;20027;-91
2023/03/17 05:18:16;;;;;;;29.45;7.93;;;8.70;99.90;;;;;;4956317;28;20050;-91
2023/03/17 05:20:42;;;;;;;16.77;7.22;;;8.60;99.90;;;;;;4956178;28;20058;-92
2023/03/17 05:23:07;;;;;;;17.48;6.70;;;8.60;99.90;;;;;;4956283;28;20027;-92
2023/03/17 05:25:33;;;;;;;16.55;5.55;;;8.60;99.90;;;;;;4956177;28;20038;-93
2023/03/17 05:27:59;;;;;;;13.15;5.63;;;8.60;99.90;;;;;;4956132;28;20072;-93
2023/03/17 05:30:25;;;;;;;14.85;6.05;;;8.60;99.90;;;;;;4955980;28;20149;-91
2023/03/17 05:32:51;;;;;;;9.93;5.82;;;8.60;99.90;;;;;;4956191;28;20081;-91
2023/03/17 05:35:17;;;;;;;16.90;6.10;;;8.50;99.90;;;;;;4956468;28;20030;-92
2023/03/17 05:37:43;;;;;;;10.80;5.95;;;8.60;99.90;;;;;;4955802;28;20038;-93
2023/03/17 05:40:13;;;;;;;14.73;5.68;;;8.50;99.90;;;;;;4956310;28;20037;-91
2023/03/17 05:42:40;;;;;;;12.55;5.93;;;8.50;99.90;;;;;;4973072;28;20480;-93
2023/03/17 05:45:07;;;;;;;16.83;6.13;;;8.50;99.90;;;;;;4955811;28;20053;-89
2023/03/17 05:47:34;;;;;;;17.35;5.47;;;8.50;99.90;;;;;;4956438;28;20027;-92
2023/03/17 05:50:00;;;;;;;14.20;5.00;;;8.50;99.90;;;;;;4957300;28;20047;-91
2023/03/17 05:52:27;;;;;;;10.43;5.00;;;8.50;99.90;;;;;;4956373;28;20051;-92
2023/03/17 05:54:53;;;;;;;14.60;5.97;;;8.50;99.90;;;;;;4961026;28;20027;-92
2023/03/17 05:57:20;;;;;;;13.93;5.35;;;8.50;99.90;;;;;;4964167;28;20022;-92
2023/03/17 05:59:45;;;;;;;14.35;5.88;;;8.40;99.90;;;;;;4971812;28;20122;-92
2023/03/17 06:02:11;;;;;;;15.57;4.88;;;8.40;99.90;;;;;;4970917;28;20074;-91
2023/03/17 06:04:38;;;;;;;10.25;5.30;;;8.40;99.90;;;;;;4961878;28;20547;-92
2023/03/17 06:07:05;;;;;;;15.75;5.60;;;8.40;99.90;;;;;;4960559;28;20054;-91
2023/03/17 06:09:31;;;;;;;11.85;5.30;;;8.40;99.90;;;;;;4959777;28;20030;-91
2023/03/17 06:11:56;;;;;;;10.15;4.70;;;8.40;99.90;;;;;;4959963;28;20031;-92
2023/03/17 06:14:22;;;;;;;24.05;6.93;;;8.40;99.90;;;;;;4959396;28;20175;-92
2023/03/17 06:16:48;;;;;;;18.40;6.28;;;8.40;99.90;;;;;;4959358;28;20081;-91
2023/03/17 06:19:14;;;;;;;12.88;5.13;;;8.40;99.90;;;;;;4960782;28;20050;-91
2023/03/17 06:21:40;;;;;;;13.95;4.88;;;8.40;99.90;;;;;;4978175;28;20350;-91
2023/03/17 06:24:06;;;;;;;15.88;5.55;;;8.40;99.90;;;;;;4978868;28;20033;-91
2023/03/17 06:26:32;;;;;;;17.08;6.10;;;8.40;99.90;;;;;;4996321;28;20065;-91
2023/03/17 06:28:58;;;;;;;13.05;5.25;;;8.40;99.90;;;;;;4978712;28;20504;-91
2023/03/17 06:31:23;;;;;;;17.77;5.20;;;8.30;99.90;;;;;;4979050;28;20042;-91
2023/03/17 06:33:49;;;;;;;11.30;5.03;;;8.30;99.90;;;;;;4978856;28;20384;-93
2023/03/17 06:36:15;;;;;;;8.57;4.25;;;8.30;99.90;;;;;;4978159;28;20113;-92
2023/03/17 06:38:42;;;;;;;14.98;5.07;;;8.30;99.90;;;;;;4978667;28;20053;-92
2023/03/17 06:41:08;;;;;;;14.80;4.95;;;8.30;99.90;;;;;;4946393;28;20028;-92
2023/03/17 06:43:34;;;;;;;12.55;5.28;;;8.30;99.90;;;;;;4940282;29;20035;-92
2023/03/17 06:46:00;;;;;;;11.30;4.35;;;8.30;99.90;;;;;;4940244;29;20049;-93
2023/03/17 06:48:25;;;;;;;18.40;4.85;;;8.30;99.90;;;;;;4939800;29;20362;-92
2023/03/17 06:50:51;;;;;;;20.70;6.28;;;8.30;99.90;;;;;;4939426;29;20083;-93
2023/03/17 06:53:17;;;;;;;17.40;4.53;;;8.40;99.90;;;;;;4940006;29;20035;-92
2023/03/17 06:55:43;;;;;;;18.42;5.53;;;8.40;99.90;;;;;;4940191;29;20505;-92
2023/03/17 06:58:09;;;;;;;12.15;5.93;;;8.40;99.90;;;;;;4939765;29;20388;-93
2023/03/17 07:00:39;;;;;;;17.65;5.97;;;8.40;99.90;;;;;;4940056;29;20023;-93
2023/03/17 07:03:05;;;;;;;14.37;4.93;;;8.40;99.90;;;;;;4939347;29;20532;-93
2023/03/17 07:05:32;;;;;;;17.92;6.15;;;8.40;99.90;;;;;;4939519;28;20028;-92
2023/03/17 07:07:58;;;;;;;19.00;5.47;;;8.40;99.90;;;;;;4950692;28;20047;-92
2023/03/17 07:10:24;;;;;;;15.65;6.15;;;8.40;99.90;;;;;;4944911;29;20370;-93
2023/03/17 07:12:50;;;;;;;13.10;5.72;;;8.40;99.90;;;;;;4951009;29;20051;-92
2023/03/17 07:15:17;;;;;;;23.73;6.35;;;8.40;99.90;;;;;;4953379;28;20030;-92
2023/03/17 07:17:50;;;;;;;15.25;5.85;;;8.40;99.90;;;;;;4961654;28;20101;-91
2023/03/17 07:20:16;;;;;;;13.85;4.90;;;8.50;99.90;;;;;;4955794;28;20023;-92
2023/03/17 07:22:41;;;;;;;16.30;6.63;;;8.50;99.90;;;;;;4950787;28;20422;-91
2023/03/17 07:25:08;;;;;;;21.48;6.90;;;8.50;99.90;;;;;;4950794;28;20059;-93
2023/03/17 07:27:34;;;;;;;16.95;6.13;;;8.50;99.90;;;;;;4950714;28;20046;-92
2023/03/17 07:30:03;;;;;;;19.02;6.78;;;8.60;99.90;;;;;;4952323;28;20019;-92
2023/03/17 07:32:32;;;;;;;18.27;6.65;;;8.60;99.90;;;;;;4964275;28;20198;-92
2023/03/17 07:34:58;;;;;;;19.13;5.93;;;8.60;99.90;;;;;;4955373;28;20023;-92
2023/03/17 07:37:24;;;;;;;12.93;5.47;;;8.70;99.90;;;;;;4948575;28;20095;-92
2023/03/17 07:39:50;;;;;;;18.27;6.18;;;8.70;99.90;;;;;;4945877;28;20507;-93
2023/03/17 07:42:16;;;;;;;12.02;5.15;;;8.70;99.90;;;;;;4948265;28;20030;-92
2023/03/17 07:44:42;;;;;;;19.60;5.63;;;8.70;99.90;;;;;;4948060;28;20085;-91
2023/03/17 07:47:10;;;;;;;19.55;6.28;;;8.80;99.90;;;;;;4973736;28;20066;-92
2023/03/17 07:49:36;;;;;;;23.23;7.78;;;8.80;99.90;;;;;;4958460;28;20082;-91
2023/03/17 07:52:09;;;;;;;20.23;5.30;;;8.80;99.90;;;;;;4958706;28;20134;-93
2023/03/17 07:54:35;;;;;;;15.68;5.30;;;8.80;99.90;;;;;;4958643;28;20082;-92
2023/03/17 07:57:01;;;;;;;13.32;6.32;;;8.90;99.90;;;;;;4958607;28;20030;-91
2023/03/17 07:59:30;;;;;;;20.35;5.35;;;8.90;99.90;;;;;;4958066;28;20691;-91
2023/03/17 08:01:57;;;;;;;15.23;5.35;;;9.00;99.90;;;;;;4958396;28;20026;-91
2023/03/17 08:04:23;;;;;;;14.80;4.88;;;9.00;99.90;;;;;;4958223;28;20861;-92
2023/03/17 08:06:49;;;;;;;18.55;5.25;;;9.10;99.90;;;;;;4950347;29;20134;-91
2023/03/17 08:09:14;;;;;;;17.08;5.35;;;9.10;99.90;;;;;;4936733;29;20062;-91
2023/03/17 08:11:40;;;;;;;15.00;5.60;;;9.10;99.90;;;;;;4936170;29;20497;-91
2023/03/17 08:14:06;;;;;;;17.13;4.57;;;9.10;99.90;;;;;;4936596;29;20525;-92
2023/03/17 08:16:32;;;;;;;15.27;5.10;;;9.20;99.90;;;;;;4935985;29;20038;-91
2023/03/17 08:18:58;;;;;;;13.45;4.85;;;9.20;99.90;;;;;;4937399;29;20359;-93
2023/03/17 08:21:26;;;;;;;15.73;5.43;;;9.30;99.90;;;;;;4936979;29;20028;-91
2023/03/17 08:23:55;;;;;;;13.90;5.28;;;9.30;99.90;;;;;;4937865;29;20028;-91
2023/03/17 08:26:22;;;;;;;16.75;5.47;;;9.30;99.90;;;;;;4937341;29;20032;-91
2023/03/17 08:28:49;;;;;;;14.77;5.55;;;9.30;99.90;;;;;;4957725;29;20035;-93
2023/03/17 08:31:19;;;;;;;19.63;6.75;;;9.30;99.90;;;;;;4944945;29;20122;-92
2023/03/17 08:33:48;;;;;;;18.40;5.68;;;9.30;99.90;;;;;;4936396;29;20058;-91
2023/03/17 08:36:15;;;;;;;19.55;5.25;;;9.30;99.90;;;;;;4936500;29;20597;-92
2023/03/17 08:38:41;;;;;;;20.25;5.15;;;9.40;99.90;;;;;;4936368;29;20037;-91
2023/03/17 08:41:12;;;;;;;21.70;5.95;;;9.40;99.90;;;;;;4936158;29;20107;-92
2023/03/17 08:43:38;;;;;;;15.13;5.60;;;9.40;99.90;;;;;;4936406;29;20028;-92
2023/03/17 08:46:08;;;;;;;17.42;5.88;;;9.40;99.90;;;;;;4936751;29;20082;-92
2023/03/17 08:48:36;;;;;;;18.42;7.15;;;9.40;99.90;;;;;;4936723;28;20037;-92
2023/03/17 08:51:03;;;;;;;22.92;5.47;;;9.40;99.90;;;;;;4939493;28;20501;-92
2023/03/17 08:53:29;;;;;;;20.25;5.70;;;9.40;99.90;;;;;;4938851;29;20020;-92
2023/03/17 08:55:56;;;;;;;15.35;4.78;;;9.40;99.90;;;;;;4939628;29;20055;-92
2023/03/17 08:58:22;;;;;;;10.93;5.30;;;9.40;99.90;;;;;;4951589;29;20043;-93
2023/03/17 09:00:48;;;;;;;20.35;5.10;;;9.40;99.90;;;;;;4958491;28;20043;-92
2023/03/17 09:03:15;;;;;;;15.80;5.55;;;9.40;99.90;;;;;;4958464;28;20026;-92
2023/03/17 09:05:41;;;;;;;16.20;4.70;;;9.50;99.90;;;;;;4951134;28;20367;-92
2023/03/17 09:08:08;;;;;;;13.10;5.40;;;9.40;99.90;;;;;;4965139;29;20115;-91
2023/03/17 09:10:35;;;;;;;14.60;4.22;;;9.40;99.90;;;;;;4968583;29;20035;-92
2023/03/17 09:13:04;;;;;;;22.80;6.18;;;9.50;99.90;;;;;;4956496;29;20027;-91
2023/03/17 09:15:31;;;;;;;29.98;5.53;;;9.40;99.90;;;;;;4954667;29;20039;-92
2023/03/17 09:17:56;;;;;;;12.52;4.80;;;9.50;99.90;;;;;;4959264;28;20034;-92
2023/03/17 09:20:23;;;;;;;16.10;5.07;;;9.50;99.90;;;;;;4948768;28;20629;-92
2023/03/17 09:22:51;;;;;;;24.73;4.60;;;9.50;99.90;;;;;;4953710;29;20038;-91
2023/03/17 09:25:17;;;;;;;16.42;4.45;;;9.60;99.90;;;;;;4954053;29;20028;-92
2023/03/17 09:27:43;;;;;;;25.48;5.85;;;9.60;99.90;;;;;;4957662;28;20031;-92
2023/03/17 09:30:12;;;;;;;23.63;5.93;;;9.70;99.90;;;;;;4957893;29;20038;-91
2023/03/17 09:32:38;;;;;;;10.65;3.53;;;9.80;99.90;;;;;;4958189;29;20027;-91
2023/03/17 09:35:05;;;;;;;12.32;4.03;;;9.90;99.90;;;;;;4958303;29;20086;-91
2023/03/17 09:37:33;;;;;;;17.40;4.32;;;10.00;99.90;;;;;;4958023;29;20039;-91
2023/03/17 09:39:59;;;;;;;11.35;3.95;;;10.00;99.90;;;;;;4957751;29;20035;-91
2023/03/17 09:42:25;;;;;;;11.00;3.28;;;10.00;99.90;;;;;;4957657;29;20031;-93
2023/03/17 09:45:12;;;;;;;13.57;3.90;;;10.10;99.90;;;;;;4957926;29;20139;-90
2023/03/17 09:47:52;;;;;;;11.45;3.78;;;10.10;99.90;;;;;;4957900;29;20507;-90
2023/03/17 09:50:38;;;;;;;17.30;3.65;;;10.20;99.90;;;;;;4956970;29;20151;-91
2023/03/17 09:53:11;;;;;;;10.32;3.50;;;10.30;99.90;;;;;;4957833;29;20039;-91
2023/03/17 09:55:37;;;;;;;17.50;5.13;;;10.50;99.90;;;;;;4957784;29;20119;-91
2023/03/17 09:58:03;;;;;;;14.60;4.28;;;10.50;99.90;;;;;;4956919;29;20054;-91
2023/03/17 10:00:29;;;;;;;12.95;4.20;;;10.70;99.90;;;;;;4957099;29;20035;-91
2023/03/17 10:02:56;;;;;;;15.95;3.75;;;10.90;99.90;;;;;;4957874;29;20174;-91
2023/03/17 10:05:29;;;;;;;21.00;3.47;;;11.00;99.90;;;;;;4957384;29;20089;-92
2023/03/17 10:08:16;;;;;;;14.82;3.03;;;11.10;99.90;;;;;;4957842;29;20151;-91
2023/03/17 10:10:44;;;;;;;17.20;3.20;;;11.30;99.90;;;;;;4954183;29;20143;-91
2023/03/17 10:13:39;;;;;;;15.35;3.30;;;11.30;99.90;;;;;;4942867;29;20106;-91
2023/03/17 10:16:20;;;;;;;12.10;3.03;;;11.40;99.90;;;;;;4934297;28;20091;-92
2023/03/17 10:18:52;;;;;;;12.38;2.75;;;11.40;99.90;;;;;;4944029;28;20028;-91
2023/03/17 10:21:30;;;;;;;12.60;3.10;;;11.50;99.90;;;;;;4946353;29;20051;-91
2023/03/17 10:23:56;;;;;;;12.23;2.70;;;11.50;99.90;;;;;;4941514;29;20034;-91
2023/03/17 10:26:44;;;;;;;10.75;2.60;;;11.50;99.90;;;;;;4946604;29;20161;-91
2023/03/17 10:29:21;;;;;;;17.00;2.75;;;11.40;99.90;;;;;;4954670;28;20114;-91
2023/03/17 10:31:48;;;;;;;21.60;3.25;;;11.50;99.90;;;;;;4945932;29;20031;-92
2023/03/17 10:34:29;;;;;;;10.50;2.67;;;11.50;99.90;;;;;;4948224;29;20027;-91
2023/03/17 10:37:04;;;;;;;13.45;2.85;;;11.60;99.90;;;;;;4934514;29;20032;-92
2023/03/17 10:39:30;;;;;;;12.40;2.50;;;11.70;99.90;;;;;;4950525;29;20023;-93
2023/03/17 10:42:10;;;;;;;16.13;3.00;;;11.70;99.90;;;;;;4948981;29;20091;-93
2023/03/17 10:44:49;;;;;;;10.38;2.70;;;11.80;99.90;;;;;;4946116;29;20122;-93
2023/03/17 10:47:34;;;;;;;17.25;2.67;;;11.90;99.90;;;;;;4946156;29;20280;-93
2023/03/17 10:50:24;;;;;;;9.50;2.42;;;12.10;99.90;;;;;;4951084;29;20051;-92
2023/03/17 10:52:59;;;;;;;16.02;2.25;;;12.40;99.90;;;;;;4943997;29;20028;-93
2023/03/17 10:55:30;;;;;;;14.68;2.85;;;12.70;99.90;;;;;;4943924;29;20118;-91
2023/03/17 10:58:17;;;;;;;13.32;2.40;;;13.00;99.90;;;;;;4945741;29;20024;-91
2023/03/17 11:01:35;;;;;;;11.27;2.05;;;13.30;99.90;;;;;;4958566;28;20039;-92
2023/03/17 11:04:05;;;;;;;13.32;2.08;;;13.60;99.90;;;;;;4929747;29;20039;-91
2023/03/17 11:06:40;;;;;;;13.32;3.03;;;13.90;99.90;;;;;;4946706;28;20020;-93
2023/03/17 11:09:18;;;;;;;10.77;1.85;;;14.20;99.90;;;;;;4952704;28;20035;-92
2023/03/17 11:11:48;;;;;;;14.18;1.92;;;14.50;99.90;;;;;;4949685;28;20058;-93
2023/03/17 11:14:18;;;;;;;7.75;1.50;;;14.60;99.90;;;;;;4947830;28;20038;-92
2023/03/17 11:16:58;;;;;;;10.38;1.90;;;14.80;99.90;;;;;;4949486;29;20035;-92
2023/03/17 11:19:50;;;;;;;8.60;1.50;;;14.90;99.90;;;;;;4960786;28;20033;-93
2023/03/17 11:22:33;;;;;;;9.30;1.45;;;14.90;99.90;;;;;;4946527;28;20031;-92
2023/03/17 11:25:18;;;;;;;12.63;2.10;;;15.10;99.90;;;;;;4948016;29;20031;-91
2023/03/17 11:28:18;;;;;;;9.73;1.52;;;15.30;99.90;;;;;;4946412;28;20031;-92
2023/03/17 11:31:01;;;;;;;7.03;1.60;;;15.50;99.90;;;;;;4954299;28;20050;-91
2023/03/17 11:33:52;;;;;;;7.47;1.75;;;15.60;99.90;;;;;;4977568;28;20384;-91
2023/03/17 11:37:01;;;;;;;4.38;1.30;;;15.70;99.90;;;;;;4960243;28;20023;-92
2023/03/17 11:40:09;;;;;;;13.50;2.33;;;15.90;99.90;;;;;;4951557;28;20026;-91
2023/03/17 11:43:04;;;;;;;14.45;1.90;;;16.20;99.90;;;;;;4898796;29;20430;-92
2023/03/17 11:46:03;;;;;;;9.32;1.58;;;16.50;99.90;;;;;;4899021;29;20032;-92
2023/03/17 11:49:23;;;;;;;10.50;1.77;;;16.70;98.00;;;;;;4898988;29;20035;-92
2023/03/17 11:52:01;;;;;;;12.77;2.13;;;16.80;95.80;;;;;;4881964;29;20036;-93
2023/03/17 11:54:47;;;;;;;7.32;1.70;;;16.50;93.10;;;;;;4884684;29;20501;-91
2023/03/17 12:00:41;;;;;;;8.48;1.63;;;15.80;93.80;;;;;;4887503;29;20092;-91
2023/03/17 12:03:41;;;;;;;9.98;1.60;;;15.70;95.00;;;;;;4882535;29;20518;-91
2023/03/17 12:06:36;;;;;;;10.05;2.83;;;15.70;96.10;;;;;;4896886;29;20036;-91
2023/03/17 12:09:24;;;;;;;4.45;1.42;;;15.70;95.80;;;;;;4882187;29;20503;-92
2023/03/17 12:11:52;;;;;;;10.70;1.85;;;15.60;96.00;;;;;;4877382;29;20494;-91
2023/03/17 12:14:26;;;;;;;8.48;1.73;;;15.50;96.20;;;;;;4887934;29;20060;-93
2023/03/17 12:17:25;;;;;;;7.35;1.35;;;15.30;96.10;;;;;;4882248;29;20039;-91
2023/03/17 12:20:05;;;;;;;9.57;2.30;;;15.10;96.60;;;;;;4939528;28;20125;-92
2023/03/17 12:22:56;;;;;;;9.70;1.80;;;14.90;97.40;;;;;;4950122;28;20030;-91
2023/03/17 12:25:44;;;;;;;7.50;1.77;;;14.80;98.20;;;;;;4929438;28;20031;-91
2023/03/17 12:28:15;;;;;;;14.65;2.33;;;14.50;98.90;;;;;;4966354;28;20026;-91
2023/03/17 12:30:53;;;;;;;9.95;1.77;;;14.40;99.70;;;;;;4958840;28;20042;-93
2023/03/17 12:33:32;;;;;;;9.30;1.77;;;14.20;99.90;;;;;;4946467;28;20065;-91
2023/03/17 12:35:59;;;;;;;14.38;2.15;;;14.10;99.90;;;;;;4963216;28;20027;-91
2023/03/17 12:38:49;;;;;;;11.88;1.42;;;14.00;99.90;;;;;;4951191;28;20029;-90
2023/03/17 12:41:35;;;;;;;10.10;1.30;;;14.10;99.90;;;;;;4937095;28;20041;-92
2023/03/17 12:44:08;;;;;;;11.65;1.80;;;14.20;99.90;;;;;;4982118;28;20269;-92
2023/03/17 12:47:02;;;;;;;10.80;1.90;;;14.40;99.90;;;;;;4953352;28;20058;-91
2023/03/17 12:49:39;;;;;;;11.85;1.70;;;14.50;99.90;;;;;;4962848;28;20026;-92
2023/03/17 12:52:09;;;;;;;14.38;3.88;;;14.70;99.90;;;;;;4951104;28;20544;-92
2023/03/17 12:54:37;;;;;;;5.80;1.40;;;15.00;99.90;;;;;;4955918;29;20041;-91
2023/03/17 12:57:26;;;;;;;9.65;1.80;;;15.30;99.90;;;;;;4939732;29;20031;-93
2023/03/17 13:00:06;;;;;;;4.53;1.40;;;15.60;99.90;;;;;;4947612;28;20110;-94
2023/03/17 13:02:37;;;;;;;7.32;1.60;;;16.10;99.90;;;;;;4958363;28;20047;-94
2023/03/17 13:05:12;;;;;;;10.18;2.13;;;16.40;99.20;;;;;;4958723;28;20034;-93